sensor_id;sensor_type;location;lat;lon;timestamp;pressure;altitude;pressure_sealevel;temperature;humidity
52651;BME280;38537;47.226;39.702;2023-01-26T00:01:18;101840.25;;;-0.52;48.55
52651;BME280;38537;47.226;39.702;2023-01-26T00:03:45;101839.84;;;-0.49;48.70
52651;BME280;38537;47.226;39.702;2023-01-26T00:06:15;101836.13;;;-0.63;49.00
52651;BME280;38537;47.226;39.702;2023-01-26T00:08:47;101842.06;;;-0.59;49.08
52651;BME280;38537;47.226;39.702;2023-01-26T00:11:18;101820.31;;;-0.89;49.83
52651;BME280;38537;47.226;39.702;2023-01-26T00:13:49;101834.72;;;-0.80;49.73
52651;BME280;38537;47.226;39.702;2023-01-26T00:16:16;101815.91;;;-0.83;49.25
52651;BME280;38537;47.226;39.702;2023-01-26T00:18:44;101824.97;;;-0.61;49.12
52651;BME280;38537;47.226;39.702;2023-01-26T00:21:13;101836.69;;;-0.74;49.34
52651;BME280;38537;47.226;39.702;2023-01-26T00:23:41;101824.75;;;-0.88;50.08
52651;BME280;38537;47.226;39.702;2023-01-26T00:26:15;101818.16;;;-0.93;50.07
52651;BME280;38537;47.226;39.702;2023-01-26T00:28:43;101831.84;;;-0.72;49.42
52651;BME280;38537;47.226;39.702;2023-01-26T00:31:14;101812.47;;;-0.71;49.71
52651;BME280;38537;47.226;39.702;2023-01-26T00:33:42;101832.00;;;-0.52;49.20
52651;BME280;38537;47.226;39.702;2023-01-26T00:36:10;101834.50;;;-0.57;49.34
52651;BME280;38537;47.226;39.702;2023-01-26T00:38:39;101824.69;;;-0.45;49.28
52651;BME280;38537;47.226;39.702;2023-01-26T00:41:08;101810.63;;;-0.29;48.61
52651;BME280;38537;47.226;39.702;2023-01-26T00:43:56;101812.88;;;-0.39;48.44
52651;BME280;38537;47.226;39.702;2023-01-26T00:46:23;101808.31;;;-0.60;48.83
52651;BME280;38537;47.226;39.702;2023-01-26T00:48:51;101815.41;;;-0.72;49.30
52651;BME280;38537;47.226;39.702;2023-01-26T00:51:19;101818.47;;;-1.03;49.97
52651;BME280;38537;47.226;39.702;2023-01-26T00:53:46;101811.66;;;-1.14;49.94
52651;BME280;38537;47.226;39.702;2023-01-26T00:56:13;101810.66;;;-1.27;50.39
52651;BME280;38537;47.226;39.702;2023-01-26T00:58:41;101810.91;;;-1.44;50.76
52651;BME280;38537;47.226;39.702;2023-01-26T01:01:10;101811.00;;;-1.37;50.77
52651;BME280;38537;47.226;39.702;2023-01-26T01:03:41;101799.88;;;-1.50;51.37
52651;BME280;38537;47.226;39.702;2023-01-26T01:06:08;101815.34;;;-1.43;51.59
52651;BME280;38537;47.226;39.702;2023-01-26T01:08:36;101812.81;;;-1.23;51.14
52651;BME280;38537;47.226;39.702;2023-01-26T01:11:05;101815.63;;;-0.95;51.20
52651;BME280;38537;47.226;39.702;2023-01-26T01:13:33;101793.50;;;-1.15;50.49
52651;BME280;38537;47.226;39.702;2023-01-26T01:16:11;101808.06;;;-1.14;51.02
52651;BME280;38537;47.226;39.702;2023-01-26T01:18:39;101797.38;;;-1.09;50.89
52651;BME280;38537;47.226;39.702;2023-01-26T01:21:13;101797.88;;;-0.99;51.10
52651;BME280;38537;47.226;39.702;2023-01-26T01:23:40;101807.38;;;-0.74;50.91
52651;BME280;38537;47.226;39.702;2023-01-26T01:26:08;101815.72;;;-0.82;50.41
52651;BME280;38537;47.226;39.702;2023-01-26T01:28:37;101817.03;;;-0.78;49.70
52651;BME280;38537;47.226;39.702;2023-01-26T01:31:11;101806.91;;;-0.77;50.64
52651;BME280;38537;47.226;39.702;2023-01-26T01:33:39;101774.50;;;-0.95;50.78
52651;BME280;38537;47.226;39.702;2023-01-26T01:36:12;101804.28;;;-0.85;50.40
52651;BME280;38537;47.226;39.702;2023-01-26T01:38:41;101808.63;;;-1.19;51.14
52651;BME280;38537;47.226;39.702;2023-01-26T01:41:09;101803.81;;;-1.38;51.17
52651;BME280;38537;47.226;39.702;2023-01-26T01:43:37;101810.91;;;-1.44;51.78
52651;BME280;38537;47.226;39.702;2023-01-26T01:46:28;101806.00;;;-1.27;52.04
52651;BME280;38537;47.226;39.702;2023-01-26T01:49:01;101801.00;;;-1.45;51.98
52651;BME280;38537;47.226;39.702;2023-01-26T01:51:40;101788.53;;;-1.47;52.31
52651;BME280;38537;47.226;39.702;2023-01-26T01:54:12;101788.66;;;-1.55;52.21
52651;BME280;38537;47.226;39.702;2023-01-26T01:56:46;101778.59;;;-1.69;52.15
52651;BME280;38537;47.226;39.702;2023-01-26T01:59:17;101776.75;;;-1.84;52.53
52651;BME280;38537;47.226;39.702;2023-01-26T02:01:50;101776.97;;;-2.00;52.53
52651;BME280;38537;47.226;39.702;2023-01-26T02:04:21;101788.00;;;-1.93;52.70
52651;BME280;38537;47.226;39.702;2023-01-26T02:06:56;101788.56;;;-1.83;53.43
52651;BME280;38537;47.226;39.702;2023-01-26T02:09:25;101786.13;;;-1.57;53.04
52651;BME280;38537;47.226;39.702;2023-01-26T02:12:17;101774.50;;;-1.59;52.54
52651;BME280;38537;47.226;39.702;2023-01-26T02:14:47;101765.22;;;-1.79;52.00
52651;BME280;38537;47.226;39.702;2023-01-26T02:17:34;101774.59;;;-1.88;51.83
52651;BME280;38537;47.226;39.702;2023-01-26T02:28:05;101777.75;;;-1.70;51.96
52651;BME280;38537;47.226;39.702;2023-01-26T02:30:32;101794.16;;;-1.70;52.44
52651;BME280;38537;47.226;39.702;2023-01-26T02:33:00;101777.13;;;-1.87;52.35
52651;BME280;38537;47.226;39.702;2023-01-26T02:35:27;101791.81;;;-1.73;52.35
52651;BME280;38537;47.226;39.702;2023-01-26T02:37:54;101789.16;;;-1.66;52.40
52651;BME280;38537;47.226;39.702;2023-01-26T02:40:37;101788.88;;;-1.57;52.02
52651;BME280;38537;47.226;39.702;2023-01-26T02:43:06;101773.47;;;-1.36;52.18
52651;BME280;38537;47.226;39.702;2023-01-26T02:45:37;101793.03;;;-1.18;51.92
52651;BME280;38537;47.226;39.702;2023-01-26T02:48:06;101761.69;;;-1.37;51.34
52651;BME280;38537;47.226;39.702;2023-01-26T02:50:34;101770.88;;;-1.23;51.72
52651;BME280;38537;47.226;39.702;2023-01-26T02:53:02;101759.63;;;-1.28;51.48
52651;BME280;38537;47.226;39.702;2023-01-26T02:55:30;101757.44;;;-1.40;51.46
52651;BME280;38537;47.226;39.702;2023-01-26T02:58:02;101769.69;;;-1.35;51.21
52651;BME280;38537;47.226;39.702;2023-01-26T03:00:34;101766.44;;;-1.46;51.23
52651;BME280;38537;47.226;39.702;2023-01-26T03:03:11;101765.75;;;-1.48;50.99
52651;BME280;38537;47.226;39.702;2023-01-26T03:05:39;101772.09;;;-1.47;50.96
52651;BME280;38537;47.226;39.702;2023-01-26T03:08:06;101767.34;;;-1.60;51.42
52651;BME280;38537;47.226;39.702;2023-01-26T03:10:35;101771.50;;;-1.64;51.33
52651;BME280;38537;47.226;39.702;2023-01-26T03:13:05;101765.81;;;-1.84;51.47
52651;BME280;38537;47.226;39.702;2023-01-26T03:15:32;101767.25;;;-1.66;51.28
52651;BME280;38537;47.226;39.702;2023-01-26T03:18:21;101780.09;;;-1.67;51.34
52651;BME280;38537;47.226;39.702;2023-01-26T03:21:13;101759.19;;;-1.75;51.85
52651;BME280;38537;47.226;39.702;2023-01-26T03:24:00;101780.53;;;-1.85;51.89
52651;BME280;38537;47.226;39.702;2023-01-26T03:26:47;101770.28;;;-1.97;51.44
52651;BME280;38537;47.226;39.702;2023-01-26T03:29:32;101767.72;;;-1.63;51.51
52651;BME280;38537;47.226;39.702;2023-01-26T03:32:00;101774.25;;;-2.00;51.17
52651;BME280;38537;47.226;39.702;2023-01-26T03:34:28;101768.22;;;-2.25;51.36
52651;BME280;38537;47.226;39.702;2023-01-26T03:36:56;101765.78;;;-2.20;51.64
52651;BME280;38537;47.226;39.702;2023-01-26T03:39:23;101760.31;;;-2.20;51.75
52651;BME280;38537;47.226;39.702;2023-01-26T03:42:09;101776.94;;;-1.85;52.20
52651;BME280;38537;47.226;39.702;2023-01-26T03:44:55;101780.47;;;-1.55;51.47
52651;BME280;38537;47.226;39.702;2023-01-26T03:47:42;101768.06;;;-1.87;50.70
52651;BME280;38537;47.226;39.702;2023-01-26T03:50:28;101778.06;;;-1.80;51.37
52651;BME280;38537;47.226;39.702;2023-01-26T03:53:20;101767.97;;;-1.79;51.05
52651;BME280;38537;47.226;39.702;2023-01-26T03:56:10;101784.69;;;-1.89;51.08
52651;BME280;38537;47.226;39.702;2023-01-26T03:58:56;101781.94;;;-1.74;51.49
52651;BME280;38537;47.226;39.702;2023-01-26T04:01:27;101784.00;;;-1.76;50.93
52651;BME280;38537;47.226;39.702;2023-01-26T04:03:57;101766.78;;;-2.06;50.93
52651;BME280;38537;47.226;39.702;2023-01-26T04:06:46;101776.03;;;-2.07;51.29
52651;BME280;38537;47.226;39.702;2023-01-26T04:09:34;101792.06;;;-2.04;51.71
52651;BME280;38537;47.226;39.702;2023-01-26T04:12:11;101775.84;;;-2.05;51.40
52651;BME280;38537;47.226;39.702;2023-01-26T04:14:56;101794.88;;;-1.83;51.09
52651;BME280;38537;47.226;39.702;2023-01-26T04:17:41;101791.03;;;-2.03;51.23
52651;BME280;38537;47.226;39.702;2023-01-26T04:20:27;101797.41;;;-1.81;51.24
52651;BME280;38537;47.226;39.702;2023-01-26T04:23:19;101795.09;;;-1.63;51.24
52651;BME280;38537;47.226;39.702;2023-01-26T04:25:49;101797.03;;;-1.93;50.73
52651;BME280;38537;47.226;39.702;2023-01-26T04:28:17;101768.59;;;-2.13;50.98
52651;BME280;38537;47.226;39.702;2023-01-26T04:30:46;101788.50;;;-2.04;51.16
52651;BME280;38537;47.226;39.702;2023-01-26T04:33:13;101790.28;;;-1.97;50.82
52651;BME280;38537;47.226;39.702;2023-01-26T04:35:40;101787.16;;;-2.09;50.63
52651;BME280;38537;47.226;39.702;2023-01-26T04:38:08;101770.88;;;-2.17;50.52
52651;BME280;38537;47.226;39.702;2023-01-26T04:40:37;101789.06;;;-2.09;51.50
52651;BME280;38537;47.226;39.702;2023-01-26T04:43:04;101788.06;;;-1.87;51.37
52651;BME280;38537;47.226;39.702;2023-01-26T04:45:32;101771.03;;;-1.67;50.90
52651;BME280;38537;47.226;39.702;2023-01-26T04:47:59;101793.84;;;-1.82;50.28
52651;BME280;38537;47.226;39.702;2023-01-26T04:50:26;101793.66;;;-1.80;50.69
52651;BME280;38537;47.226;39.702;2023-01-26T04:52:53;101791.22;;;-2.04;50.24
52651;BME280;38537;47.226;39.702;2023-01-26T04:55:20;101810.94;;;-2.09;50.86
52651;BME280;38537;47.226;39.702;2023-01-26T04:57:48;101798.69;;;-2.13;50.75
52651;BME280;38537;47.226;39.702;2023-01-26T05:00:16;101813.13;;;-2.04;50.89
52651;BME280;38537;47.226;39.702;2023-01-26T05:02:43;101800.84;;;-2.09;51.09
52651;BME280;38537;47.226;39.702;2023-01-26T05:05:11;101787.38;;;-2.25;50.26
52651;BME280;38537;47.226;39.702;2023-01-26T05:07:38;101812.28;;;-2.20;50.16
52651;BME280;38537;47.226;39.702;2023-01-26T05:10:06;101826.63;;;-2.18;50.60
52651;BME280;38537;47.226;39.702;2023-01-26T05:12:52;101818.31;;;-1.95;50.51
52651;BME280;38537;47.226;39.702;2023-01-26T05:15:33;101804.16;;;-2.13;50.52
52651;BME280;38537;47.226;39.702;2023-01-26T05:18:32;101805.38;;;-2.16;50.48
52651;BME280;38537;47.226;39.702;2023-01-26T05:21:04;101817.06;;;-2.07;50.41
52651;BME280;38537;47.226;39.702;2023-01-26T05:23:40;101793.69;;;-2.10;50.80
52651;BME280;38537;47.226;39.702;2023-01-26T05:26:29;101822.63;;;-1.86;50.38
52651;BME280;38537;47.226;39.702;2023-01-26T05:29:01;101811.75;;;-1.79;50.18
52651;BME280;38537;47.226;39.702;2023-01-26T05:31:30;101811.19;;;-1.75;49.90
52651;BME280;38537;47.226;39.702;2023-01-26T05:33:57;101801.03;;;-1.59;50.06
52651;BME280;38537;47.226;39.702;2023-01-26T05:36:24;101825.06;;;-1.40;49.44
52651;BME280;38537;47.226;39.702;2023-01-26T05:38:52;101813.19;;;-1.26;49.46
52651;BME280;38537;47.226;39.702;2023-01-26T05:41:23;101825.53;;;-1.15;49.17
52651;BME280;38537;47.226;39.702;2023-01-26T05:44:10;101792.41;;;-1.20;49.12
52651;BME280;38537;47.226;39.702;2023-01-26T05:46:44;101803.72;;;-1.02;48.81
52651;BME280;38537;47.226;39.702;2023-01-26T05:49:13;101817.97;;;-0.64;48.82
52651;BME280;38537;47.226;39.702;2023-01-26T05:51:40;101791.66;;;-0.58;48.77
52651;BME280;38537;47.226;39.702;2023-01-26T05:54:07;101794.91;;;-0.48;48.20
52651;BME280;38537;47.226;39.702;2023-01-26T05:56:35;101797.19;;;-0.17;48.09
52651;BME280;38537;47.226;39.702;2023-01-26T05:59:04;101799.25;;;0.15;48.30
52651;BME280;38537;47.226;39.702;2023-01-26T06:01:32;101789.00;;;0.37;48.03
52651;BME280;38537;47.226;39.702;2023-01-26T06:04:05;101796.72;;;0.81;47.75
52651;BME280;38537;47.226;39.702;2023-01-26T06:06:47;101798.84;;;0.86;47.01
52651;BME280;38537;47.226;39.702;2023-01-26T06:09:45;101785.69;;;0.75;46.61
52651;BME280;38537;47.226;39.702;2023-01-26T06:12:31;101797.72;;;0.60;46.25
52651;BME280;38537;47.226;39.702;2023-01-26T06:15:17;101804.13;;;0.81;46.88
52651;BME280;38537;47.226;39.702;2023-01-26T06:17:47;101771.75;;;0.89;46.84
52651;BME280;38537;47.226;39.702;2023-01-26T06:20:14;101793.13;;;1.33;46.96
52651;BME280;38537;47.226;39.702;2023-01-26T06:22:51;101794.16;;;1.52;46.43
52651;BME280;38537;47.226;39.702;2023-01-26T06:25:19;101800.13;;;1.49;45.89
52651;BME280;38537;47.226;39.702;2023-01-26T06:27:46;101785.72;;;1.34;45.81
52651;BME280;38537;47.226;39.702;2023-01-26T06:30:24;101771.56;;;1.24;45.58
52651;BME280;38537;47.226;39.702;2023-01-26T06:32:57;101775.16;;;1.11;45.16
52651;BME280;38537;47.226;39.702;2023-01-26T06:35:27;101795.25;;;1.18;45.87
52651;BME280;38537;47.226;39.702;2023-01-26T06:37:58;101802.25;;;1.01;46.18
52651;BME280;38537;47.226;39.702;2023-01-26T06:40:25;101783.81;;;0.95;46.62
52651;BME280;38537;47.226;39.702;2023-01-26T06:42:53;101770.06;;;0.82;46.76
52651;BME280;38537;47.226;39.702;2023-01-26T06:45:20;101773.69;;;1.15;47.00
52651;BME280;38537;47.226;39.702;2023-01-26T06:47:50;101791.88;;;1.36;45.91
52651;BME280;38537;47.226;39.702;2023-01-26T06:50:22;101777.91;;;1.31;46.16
52651;BME280;38537;47.226;39.702;2023-01-26T06:52:54;101785.94;;;1.46;46.56
52651;BME280;38537;47.226;39.702;2023-01-26T06:55:42;101774.06;;;1.65;45.99
52651;BME280;38537;47.226;39.702;2023-01-26T06:58:31;101771.88;;;1.93;46.50
52651;BME280;38537;47.226;39.702;2023-01-26T07:01:32;101757.25;;;1.86;45.34
52651;BME280;38537;47.226;39.702;2023-01-26T07:04:00;101784.38;;;1.89;45.63
52651;BME280;38537;47.226;39.702;2023-01-26T07:06:29;101785.00;;;1.91;45.99
52651;BME280;38537;47.226;39.702;2023-01-26T07:08:56;101774.25;;;1.70;45.80
52651;BME280;38537;47.226;39.702;2023-01-26T07:11:23;101786.97;;;1.71;46.70
52651;BME280;38537;47.226;39.702;2023-01-26T07:13:51;101770.25;;;1.73;47.21
52651;BME280;38537;47.226;39.702;2023-01-26T07:16:19;101771.25;;;1.78;46.44
52651;BME280;38537;47.226;39.702;2023-01-26T07:18:47;101769.56;;;1.84;46.32
52651;BME280;38537;47.226;39.702;2023-01-26T07:21:16;101770.81;;;1.94;46.32
52651;BME280;38537;47.226;39.702;2023-01-26T07:23:45;101743.94;;;1.83;46.61
52651;BME280;38537;47.226;39.702;2023-01-26T07:26:13;101778.81;;;2.02;46.44
52651;BME280;38537;47.226;39.702;2023-01-26T07:28:40;101770.19;;;1.86;46.59
52651;BME280;38537;47.226;39.702;2023-01-26T07:31:12;101775.22;;;2.02;46.49
52651;BME280;38537;47.226;39.702;2023-01-26T07:33:40;101761.22;;;2.03;47.13
52651;BME280;38537;47.226;39.702;2023-01-26T07:36:12;101758.28;;;1.98;46.40
52651;BME280;38537;47.226;39.702;2023-01-26T07:38:39;101772.47;;;2.02;46.71
52651;BME280;38537;47.226;39.702;2023-01-26T07:41:10;101783.50;;;1.95;46.54
52651;BME280;38537;47.226;39.702;2023-01-26T07:43:38;101754.75;;;1.78;46.64
52651;BME280;38537;47.226;39.702;2023-01-26T07:46:09;101772.03;;;1.98;46.88
52651;BME280;38537;47.226;39.702;2023-01-26T07:48:38;101774.56;;;2.13;47.12
52651;BME280;38537;47.226;39.702;2023-01-26T07:51:07;101761.00;;;2.05;46.60
52651;BME280;38537;47.226;39.702;2023-01-26T07:53:37;101745.31;;;2.05;46.96
52651;BME280;38537;47.226;39.702;2023-01-26T07:56:11;101750.41;;;2.09;47.04
52651;BME280;38537;47.226;39.702;2023-01-26T07:58:40;101751.47;;;2.01;46.91
52651;BME280;38537;47.226;39.702;2023-01-26T08:01:09;101758.16;;;2.25;47.47
52651;BME280;38537;47.226;39.702;2023-01-26T08:03:37;101756.75;;;2.54;47.52
52651;BME280;38537;47.226;39.702;2023-01-26T08:06:06;101753.56;;;2.82;47.28
52651;BME280;38537;47.226;39.702;2023-01-26T08:08:38;101745.19;;;3.01;46.34
52651;BME280;38537;47.226;39.702;2023-01-26T08:11:07;101734.63;;;3.17;46.69
52651;BME280;38537;47.226;39.702;2023-01-26T08:13:35;101736.31;;;3.18;46.37
52651;BME280;38537;47.226;39.702;2023-01-26T08:16:04;101718.69;;;3.43;47.47
52651;BME280;38537;47.226;39.702;2023-01-26T08:18:32;101743.09;;;3.65;45.97
52651;BME280;38537;47.226;39.702;2023-01-26T08:20:59;101730.19;;;3.77;46.37
52651;BME280;38537;47.226;39.702;2023-01-26T08:23:27;101707.41;;;3.82;46.19
52651;BME280;38537;47.226;39.702;2023-01-26T08:26:09;101725.97;;;3.93;45.96
52651;BME280;38537;47.226;39.702;2023-01-26T08:28:37;101715.13;;;3.91;46.30
52651;BME280;38537;47.226;39.702;2023-01-26T08:31:11;101718.75;;;3.92;45.98
52651;BME280;38537;47.226;39.702;2023-01-26T08:33:40;101704.09;;;4.09;46.05
52651;BME280;38537;47.226;39.702;2023-01-26T08:36:13;101703.09;;;4.04;46.31
52651;BME280;38537;47.226;39.702;2023-01-26T08:38:48;101709.28;;;4.18;46.30
52651;BME280;38537;47.226;39.702;2023-01-26T08:41:15;101692.66;;;4.36;46.63
52651;BME280;38537;47.226;39.702;2023-01-26T08:43:42;101687.03;;;4.42;45.55
52651;BME280;38537;47.226;39.702;2023-01-26T08:46:09;101687.09;;;4.54;45.32
52651;BME280;38537;47.226;39.702;2023-01-26T08:48:37;101689.16;;;4.70;45.94
52651;BME280;38537;47.226;39.702;2023-01-26T08:51:07;101672.94;;;4.74;45.35
52651;BME280;38537;47.226;39.702;2023-01-26T08:53:35;101692.31;;;4.86;45.34
52651;BME280;38537;47.226;39.702;2023-01-26T08:56:05;101678.72;;;4.84;44.69
52651;BME280;38537;47.226;39.702;2023-01-26T08:58:34;101684.00;;;4.74;45.70
52651;BME280;38537;47.226;39.702;2023-01-26T09:01:06;101679.19;;;4.69;45.32
52651;BME280;38537;47.226;39.702;2023-01-26T09:03:35;101675.22;;;4.89;46.12
52651;BME280;38537;47.226;39.702;2023-01-26T09:06:04;101676.44;;;4.93;45.71
52651;BME280;38537;47.226;39.702;2023-01-26T09:08:32;101664.41;;;4.99;45.50
52651;BME280;38537;47.226;39.702;2023-01-26T09:10:59;101668.78;;;5.18;45.87
52651;BME280;38537;47.226;39.702;2023-01-26T09:13:27;101656.34;;;5.21;45.77
52651;BME280;38537;47.226;39.702;2023-01-26T09:15:54;101658.00;;;5.45;45.74
52651;BME280;38537;47.226;39.702;2023-01-26T09:18:21;101667.00;;;5.64;45.14
52651;BME280;38537;47.226;39.702;2023-01-26T09:20:49;101668.03;;;5.34;45.24
52651;BME280;38537;47.226;39.702;2023-01-26T09:23:17;101670.81;;;5.34;44.88
52651;BME280;38537;47.226;39.702;2023-01-26T09:25:44;101655.16;;;5.16;44.59
52651;BME280;38537;47.226;39.702;2023-01-26T09:28:11;101643.00;;;5.06;44.86
52651;BME280;38537;47.226;39.702;2023-01-26T09:30:38;101670.47;;;5.19;45.13
52651;BME280;38537;47.226;39.702;2023-01-26T09:33:06;101667.78;;;5.12;45.53
52651;BME280;38537;47.226;39.702;2023-01-26T09:35:33;101631.66;;;4.84;45.09
52651;BME280;38537;47.226;39.702;2023-01-26T09:38:01;101644.44;;;4.97;45.68
52651;BME280;38537;47.226;39.702;2023-01-26T09:43:37;101658.75;;;5.29;45.88
52651;BME280;38537;47.226;39.702;2023-01-26T09:52:35;101643.56;;;5.55;45.64
52651;BME280;38537;47.226;39.702;2023-01-26T09:55:14;101643.41;;;5.73;46.04
52651;BME280;38537;47.226;39.702;2023-01-26T09:57:49;101636.63;;;5.92;45.42
52651;BME280;38537;47.226;39.702;2023-01-26T10:00:19;101622.22;;;6.07;45.39
52651;BME280;38537;47.226;39.702;2023-01-26T10:06:04;101625.13;;;6.29;44.73
52651;BME280;38537;47.226;39.702;2023-01-26T10:09:27;101611.34;;;6.34;44.54
52651;BME280;38537;47.226;39.702;2023-01-26T10:11:55;101614.03;;;6.29;44.51
52651;BME280;38537;47.226;39.702;2023-01-26T10:16:58;101604.72;;;6.35;45.25
52651;BME280;38537;47.226;39.702;2023-01-26T10:19:34;101598.97;;;6.70;44.63
52651;BME280;38537;47.226;39.702;2023-01-26T10:22:13;101603.81;;;6.79;44.68
52651;BME280;38537;47.226;39.702;2023-01-26T10:24:46;101598.94;;;6.86;44.99
52651;BME280;38537;47.226;39.702;2023-01-26T10:27:15;101594.75;;;6.67;43.82
52651;BME280;38537;47.226;39.702;2023-01-26T10:29:42;101569.19;;;6.48;43.84
52651;BME280;38537;47.226;39.702;2023-01-26T10:32:16;101578.41;;;6.37;43.42
52651;BME280;38537;47.226;39.702;2023-01-26T10:34:44;101593.06;;;6.66;43.51
52651;BME280;38537;47.226;39.702;2023-01-26T10:37:41;101589.53;;;6.71;45.26
52651;BME280;38537;47.226;39.702;2023-01-26T10:40:09;101581.28;;;6.59;44.86
52651;BME280;38537;47.226;39.702;2023-01-26T10:42:39;101595.16;;;6.59;43.99
52651;BME280;38537;47.226;39.702;2023-01-26T10:45:43;101581.28;;;6.42;42.45
52651;BME280;38537;47.226;39.702;2023-01-26T10:48:21;101576.72;;;6.19;43.68
52651;BME280;38537;47.226;39.702;2023-01-26T10:50:53;101579.09;;;6.61;45.30
52651;BME280;38537;47.226;39.702;2023-01-26T10:53:27;101564.78;;;6.52;43.78
52651;BME280;38537;47.226;39.702;2023-01-26T10:56:10;101550.66;;;6.54;43.46
52651;BME280;38537;47.226;39.702;2023-01-26T10:58:55;101564.19;;;6.50;44.02
52651;BME280;38537;47.226;39.702;2023-01-26T11:01:24;101541.50;;;6.03;43.30
52651;BME280;38537;47.226;39.702;2023-01-26T11:04:05;101566.94;;;6.00;43.73
52651;BME280;38537;47.226;39.702;2023-01-26T11:06:33;101552.47;;;5.98;44.59
52651;BME280;38537;47.226;39.702;2023-01-26T11:09:19;101548.47;;;6.06;44.30
52651;BME280;38537;47.226;39.702;2023-01-26T11:11:59;101575.03;;;6.18;44.29
52651;BME280;38537;47.226;39.702;2023-01-26T11:14:28;101551.63;;;5.98;44.13
52651;BME280;38537;47.226;39.702;2023-01-26T11:17:13;101571.38;;;6.01;43.92
52651;BME280;38537;47.226;39.702;2023-01-26T11:22:52;101569.63;;;6.12;43.87
52651;BME280;38537;47.226;39.702;2023-01-26T11:25:34;101548.72;;;6.04;43.42
52651;BME280;38537;47.226;39.702;2023-01-26T11:33:31;101549.88;;;5.80;43.69
52651;BME280;38537;47.226;39.702;2023-01-26T11:38:44;101554.13;;;5.71;43.89
52651;BME280;38537;47.226;39.702;2023-01-26T11:41:47;101563.81;;;5.85;44.25
52651;BME280;38537;47.226;39.702;2023-01-26T11:50:29;101581.13;;;6.49;44.52
52651;BME280;38537;47.226;39.702;2023-01-26T11:53:25;101592.22;;;6.66;43.61
52651;BME280;38537;47.226;39.702;2023-01-26T11:56:14;101572.38;;;6.40;43.19
52651;BME280;38537;47.226;39.702;2023-01-26T11:59:00;101583.63;;;6.34;43.26
52651;BME280;38537;47.226;39.702;2023-01-26T12:01:33;101573.84;;;6.14;44.00
52651;BME280;38537;47.226;39.702;2023-01-26T12:04:01;101555.00;;;5.88;43.59
52651;BME280;38537;47.226;39.702;2023-01-26T12:06:43;101574.22;;;5.78;44.17
52651;BME280;38537;47.226;39.702;2023-01-26T12:14:50;101561.38;;;6.00;44.70
52651;BME280;38537;47.226;39.702;2023-01-26T12:23:04;101572.50;;;6.34;43.91
52651;BME280;38537;47.226;39.702;2023-01-26T12:25:45;101584.47;;;6.51;44.35
52651;BME280;38537;47.226;39.702;2023-01-26T12:28:24;101590.09;;;6.56;43.95
52651;BME280;38537;47.226;39.702;2023-01-26T12:33:42;101557.91;;;6.22;43.64
52651;BME280;38537;47.226;39.702;2023-01-26T12:36:51;101578.34;;;6.49;43.63
52651;BME280;38537;47.226;39.702;2023-01-26T12:39:33;101585.91;;;6.70;44.71
52651;BME280;38537;47.226;39.702;2023-01-26T12:45:00;101574.19;;;7.02;43.44
52651;BME280;38537;47.226;39.702;2023-01-26T12:47:43;101575.13;;;6.91;43.23
52651;BME280;38537;47.226;39.702;2023-01-26T12:53:06;101525.63;;;6.32;43.01
52651;BME280;38537;47.226;39.702;2023-01-26T12:55:47;101582.13;;;6.60;43.46
52651;BME280;38537;47.226;39.702;2023-01-26T12:58:28;101549.13;;;6.30;43.16
52651;BME280;38537;47.226;39.702;2023-01-26T13:01:02;101581.28;;;6.42;43.08
52651;BME280;38537;47.226;39.702;2023-01-26T13:03:33;101579.34;;;6.43;43.15
52651;BME280;38537;47.226;39.702;2023-01-26T13:11:07;101580.44;;;6.59;42.88
52651;BME280;38537;47.226;39.702;2023-01-26T13:13:54;101578.34;;;6.49;42.79
52651;BME280;38537;47.226;39.702;2023-01-26T13:18:57;101569.25;;;6.53;41.59
52651;BME280;38537;47.226;39.702;2023-01-26T13:21:43;101576.56;;;6.76;42.36
52651;BME280;38537;47.226;39.702;2023-01-26T13:26:47;101580.19;;;6.60;41.18
52651;BME280;38537;47.226;39.702;2023-01-26T13:31:52;101576.97;;;6.35;40.97
52651;BME280;38537;47.226;39.702;2023-01-26T13:34:30;101564.09;;;6.29;40.82
52651;BME280;38537;47.226;39.702;2023-01-26T13:40:03;101564.63;;;6.59;41.90
52651;BME280;38537;47.226;39.702;2023-01-26T13:42:40;101560.44;;;6.40;40.28
52651;BME280;38537;47.226;39.702;2023-01-26T13:45:21;101576.31;;;6.44;40.32
52651;BME280;38537;47.226;39.702;2023-01-26T13:47:51;101562.59;;;6.21;40.14
52651;BME280;38537;47.226;39.702;2023-01-26T13:50:22;101559.50;;;6.34;40.39
52651;BME280;38537;47.226;39.702;2023-01-26T13:52:50;101562.25;;;6.34;40.08
52651;BME280;38537;47.226;39.702;2023-01-26T13:55:25;101571.38;;;6.46;40.02
52651;BME280;38537;47.226;39.702;2023-01-26T13:58:14;101558.34;;;6.47;39.56
52651;BME280;38537;47.226;39.702;2023-01-26T14:00:42;101555.53;;;6.30;40.36
52651;BME280;38537;47.226;39.702;2023-01-26T14:03:21;101560.25;;;6.30;39.79
52651;BME280;38537;47.226;39.702;2023-01-26T14:06:13;101565.63;;;6.36;39.33
52651;BME280;38537;47.226;39.702;2023-01-26T14:08:51;101555.66;;;6.07;38.80
52651;BME280;38537;47.226;39.702;2023-01-26T14:11:22;101564.16;;;6.00;39.38
52651;BME280;38537;47.226;39.702;2023-01-26T14:13:52;101564.34;;;5.82;39.16
52651;BME280;38537;47.226;39.702;2023-01-26T14:16:25;101551.94;;;5.73;39.90
52651;BME280;38537;47.226;39.702;2023-01-26T14:19:15;101567.50;;;5.74;39.28
52651;BME280;38537;47.226;39.702;2023-01-26T14:21:51;101544.78;;;5.60;39.99
52651;BME280;38537;47.226;39.702;2023-01-26T14:24:31;101567.50;;;5.74;39.70
52651;BME280;38537;47.226;39.702;2023-01-26T14:27:00;101541.06;;;5.55;40.21
52651;BME280;38537;47.226;39.702;2023-01-26T14:29:29;101556.00;;;5.54;39.76
52651;BME280;38537;47.226;39.702;2023-01-26T14:31:58;101564.41;;;5.59;40.06
52651;BME280;38537;47.226;39.702;2023-01-26T14:34:29;101546.28;;;5.39;40.34